createdAt,value
2023-01-11T00:00:00.530Z,3.54
2023-01-11T00:02:28.434Z,3.55
2023-01-11T00:04:56.188Z,3.63
2023-01-11T00:07:23.907Z,3.59
2023-01-11T00:09:51.577Z,3.62
2023-01-11T00:12:20.589Z,3.66
2023-01-11T00:14:48.430Z,3.60
2023-01-11T00:17:16.115Z,3.67
2023-01-11T00:19:44.214Z,3.61
2023-01-11T00:22:11.930Z,3.76
2023-01-11T00:24:39.636Z,3.70
2023-01-11T00:27:07.307Z,3.67
2023-01-11T00:29:36.398Z,3.78
2023-01-11T00:32:04.292Z,3.66
2023-01-11T00:34:31.971Z,3.63
2023-01-11T00:36:59.669Z,3.71
2023-01-11T00:39:27.726Z,3.69
2023-01-11T00:42:12.833Z,3.75
2023-01-11T00:44:59.421Z,3.73
2023-01-11T00:47:45.187Z,3.72
2023-01-11T00:50:12.988Z,3.78
2023-01-11T00:52:40.763Z,3.77
2023-01-11T00:55:09.535Z,3.60
2023-01-11T00:57:37.479Z,3.64
2023-01-11T01:00:08.544Z,3.70
2023-01-11T01:02:36.359Z,3.60
2023-01-11T01:05:04.130Z,3.47
2023-01-11T01:07:31.886Z,3.42
2023-01-11T01:09:59.582Z,3.32
2023-01-11T01:12:44.653Z,3.27
2023-01-11T01:15:13.979Z,3.22
2023-01-11T01:17:41.727Z,3.22
2023-01-11T01:20:10.462Z,3.23
2023-01-11T01:22:38.181Z,3.17
2023-01-11T01:25:06.620Z,3.24
2023-01-11T01:27:34.362Z,3.14
2023-01-11T01:30:02.093Z,3.06
2023-01-11T01:32:31.332Z,3.20
2023-01-11T01:34:59.201Z,3.13
2023-01-11T01:37:26.903Z,3.27
2023-01-11T01:39:54.645Z,3.24
2023-01-11T01:42:24.285Z,3.09
2023-01-11T01:45:03.490Z,3.21
2023-01-11T01:47:38.047Z,3.24
2023-01-11T01:50:11.055Z,3.25
2023-01-11T01:52:39.558Z,3.15
2023-01-11T01:55:12.910Z,3.14
2023-01-11T01:57:42.984Z,3.17
2023-01-11T02:00:13.006Z,3.26
2023-01-11T02:02:45.305Z,3.26
2023-01-11T02:05:14.706Z,3.29
2023-01-11T02:07:44.499Z,3.46
2023-01-11T02:10:15.208Z,3.50
2023-01-11T02:12:47.985Z,3.56
2023-01-11T02:15:17.533Z,3.47
2023-01-11T02:17:46.814Z,3.40
2023-01-11T02:20:27.602Z,3.41
2023-01-11T02:23:41.477Z,3.43
2023-01-11T02:26:46.976Z,3.45
2023-01-11T02:29:25.890Z,3.50
2023-01-11T02:32:04.145Z,3.55
2023-01-11T02:34:41.923Z,3.62
2023-01-11T02:37:22.694Z,3.61
2023-01-11T02:40:03.782Z,3.62
2023-01-11T02:42:57.507Z,3.62
2023-01-11T02:45:40.575Z,3.64
2023-01-11T02:48:17.434Z,3.71
2023-01-11T02:50:51.286Z,3.68
2023-01-11T02:53:24.870Z,3.77
2023-01-11T02:55:57.855Z,3.69
2023-01-11T02:58:29.292Z,3.82
2023-01-11T03:00:59.491Z,3.84
2023-01-11T03:03:29.493Z,3.80
2023-01-11T03:06:02.909Z,3.91
2023-01-11T03:08:50.243Z,3.91
2023-01-11T03:11:46.166Z,3.76
2023-01-11T03:14:25.219Z,3.83
2023-01-11T03:17:02.179Z,3.87
2023-01-11T03:19:40.054Z,3.94
2023-01-11T03:22:18.531Z,4.03
2023-01-11T03:24:51.402Z,4.08
2023-01-11T03:27:26.181Z,3.99
2023-01-11T03:30:01.580Z,3.99
2023-01-11T03:32:37.859Z,4.09
2023-01-11T03:35:16.626Z,4.07
2023-01-11T03:37:49.796Z,4.10
2023-01-11T03:40:23.208Z,4.17
2023-01-11T03:43:12.391Z,4.19
2023-01-11T03:45:45.415Z,4.08
2023-01-11T03:48:18.242Z,4.10
2023-01-11T03:50:48.588Z,4.09
2023-01-11T03:53:20.241Z,4.06
2023-01-11T03:55:52.622Z,4.04
2023-01-11T03:58:20.350Z,4.07
2023-01-11T04:00:49.495Z,4.07
2023-01-11T04:03:18.612Z,4.11
2023-01-11T04:05:49.277Z,4.17
2023-01-11T04:08:16.914Z,4.27
2023-01-11T04:10:44.653Z,4.22
2023-01-11T04:13:12.312Z,4.15
2023-01-11T04:15:39.978Z,4.09
2023-01-11T04:18:07.772Z,4.07
2023-01-11T04:20:38.853Z,4.14
2023-01-11T04:23:07.944Z,4.17
2023-01-11T04:25:35.600Z,4.15
2023-01-11T04:28:03.319Z,4.09
2023-01-11T04:30:31.088Z,4.20
2023-01-11T04:32:59.128Z,4.19
2023-01-11T04:35:27.275Z,4.24
2023-01-11T04:37:56.963Z,4.16
2023-01-11T04:40:25.979Z,4.27
2023-01-11T04:42:52.750Z,4.25
2023-01-11T04:45:20.539Z,4.25
2023-01-11T04:47:53.975Z,4.11
2023-01-11T04:50:21.710Z,4.11
2023-01-11T04:52:49.444Z,4.12
2023-01-11T04:55:19.107Z,4.27
2023-01-11T04:57:46.900Z,4.17
2023-01-11T05:00:16.003Z,4.28
2023-01-11T05:02:43.901Z,4.25
2023-01-11T05:05:11.704Z,4.27
2023-01-11T05:07:39.818Z,4.28
2023-01-11T05:10:08.487Z,4.19
2023-01-11T05:12:37.487Z,4.19
2023-01-11T05:15:06.146Z,4.32
2023-01-11T05:17:33.804Z,4.33
2023-01-11T05:20:01.503Z,4.37
2023-01-11T05:22:29.191Z,4.48
2023-01-11T05:24:56.976Z,4.34
2023-01-11T05:27:24.723Z,4.43
2023-01-11T05:29:53.750Z,4.42
2023-01-11T05:32:21.449Z,4.42
2023-01-11T05:34:49.153Z,4.45
2023-01-11T05:37:17.059Z,4.51
2023-01-11T05:39:44.799Z,4.44
2023-01-11T05:42:12.497Z,4.46
2023-01-11T05:44:58.304Z,4.41
2023-01-11T05:47:27.355Z,4.47
2023-01-11T05:49:55.023Z,4.48
2023-01-11T05:52:22.757Z,4.62
2023-01-11T05:54:50.451Z,4.57
2023-01-11T05:57:18.167Z,4.61
2023-01-11T05:59:45.910Z,4.55
2023-01-11T06:02:13.643Z,4.63
2023-01-11T06:04:42.764Z,4.65
2023-01-11T06:07:10.686Z,4.70
2023-01-11T06:09:38.668Z,4.63
2023-01-11T06:12:06.750Z,4.67
2023-01-11T06:14:36.499Z,4.64
2023-01-11T06:17:05.650Z,4.74
2023-01-11T06:19:33.358Z,4.82
2023-01-11T06:22:02.739Z,4.87
2023-01-11T06:24:30.566Z,4.96
2023-01-11T06:26:58.384Z,5.01
2023-01-11T06:29:26.124Z,5.07
2023-01-11T06:31:53.830Z,5.07
2023-01-11T06:34:21.609Z,5.03
2023-01-11T06:36:49.313Z,5.04
2023-01-11T06:39:18.430Z,5.21
2023-01-11T06:41:46.199Z,5.09
2023-01-11T06:44:13.855Z,5.13
2023-01-11T06:46:41.560Z,5.15
2023-01-11T06:49:09.439Z,5.21
2023-01-11T06:51:37.153Z,5.13
2023-01-11T06:54:04.931Z,5.14
2023-01-11T06:56:33.960Z,5.27
2023-01-11T06:59:01.997Z,5.15
2023-01-11T07:01:30.595Z,5.15
2023-01-11T07:03:58.592Z,5.19
2023-01-11T07:06:26.335Z,5.18
2023-01-11T07:08:54.039Z,5.24
2023-01-11T07:11:21.792Z,5.31
2023-01-11T07:13:51.059Z,5.20
2023-01-11T07:16:18.990Z,5.12
2023-01-11T07:18:46.843Z,5.16
2023-01-11T07:21:14.660Z,5.24
2023-01-11T07:23:42.414Z,5.28
2023-01-11T07:26:10.145Z,5.31
2023-01-11T07:28:37.921Z,5.35
2023-01-11T07:31:07.233Z,5.33
2023-01-11T07:33:35.037Z,5.33
2023-01-11T07:36:05.439Z,5.37
2023-01-11T07:38:33.338Z,5.40
2023-01-11T07:41:01.181Z,5.42
2023-01-11T07:43:27.930Z,5.45
2023-01-11T07:45:55.920Z,5.45
2023-01-11T07:48:27.095Z,5.58
2023-01-11T07:50:55.804Z,5.63
2023-01-11T07:53:26.318Z,5.55
2023-01-11T07:55:55.646Z,5.57
2023-01-11T07:58:23.631Z,5.55
2023-01-11T08:00:51.338Z,5.69
2023-01-11T08:03:19.197Z,5.75
2023-01-11T08:05:52.545Z,5.85
2023-01-11T08:08:20.344Z,5.91
2023-01-11T08:11:08.180Z,5.92
2023-01-11T08:13:53.636Z,5.91
2023-01-11T08:16:21.338Z,5.84
2023-01-11T08:18:49.901Z,6.01
2023-01-11T08:21:18.838Z,6.09
2023-01-11T08:23:46.488Z,6.14
2023-01-11T08:26:17.076Z,6.19
2023-01-11T08:28:44.760Z,6.13
2023-01-11T08:31:12.627Z,6.08
2023-01-11T08:33:40.739Z,6.22
2023-01-11T08:36:11.269Z,6.18
2023-01-11T08:38:40.753Z,6.27
2023-01-11T08:41:10.756Z,6.43
2023-01-11T08:43:38.580Z,6.40
2023-01-11T08:46:06.705Z,6.59
2023-01-11T08:48:34.484Z,6.48
2023-01-11T08:51:02.178Z,6.41
2023-01-11T08:53:30.053Z,6.49
2023-01-11T08:55:59.197Z,6.49
2023-01-11T08:58:26.882Z,6.43
2023-01-11T09:00:54.536Z,6.52
2023-01-11T09:03:22.302Z,6.45
2023-01-11T09:05:49.893Z,6.53
2023-01-11T09:08:17.581Z,6.57
2023-01-11T09:10:45.246Z,6.53
2023-01-11T09:13:14.293Z,6.61
2023-01-11T09:15:42.099Z,6.61
2023-01-11T09:18:09.787Z,6.62
2023-01-11T09:20:37.492Z,6.62
2023-01-11T09:23:05.258Z,6.87
2023-01-11T09:25:33.421Z,6.78
2023-01-11T09:28:01.216Z,6.89
2023-01-11T09:30:31.274Z,6.75
2023-01-11T09:32:59.079Z,6.89
2023-01-11T09:35:27.070Z,6.92
2023-01-11T09:37:56.639Z,7.07
2023-01-11T09:40:34.782Z,7.07
2023-01-11T09:43:05.277Z,7.12
2023-01-11T09:45:35.497Z,7.12
2023-01-11T09:48:12.551Z,7.15
2023-01-11T09:50:45.555Z,7.23
2023-01-11T09:53:22.375Z,7.28
2023-01-11T09:55:52.280Z,7.23
2023-01-11T09:58:42.955Z,7.25
2023-01-11T10:01:18.406Z,7.26
2023-01-11T10:04:23.967Z,7.28
2023-01-11T10:07:10.270Z,7.32
2023-01-11T10:18:32.462Z,7.50
2023-01-11T10:19:05.899Z,7.69
2023-01-11T10:21:41.859Z,7.62
2023-01-11T10:24:18.073Z,7.56
2023-01-11T10:26:46.502Z,7.68
2023-01-11T10:29:38.783Z,7.87
2023-01-11T10:32:34.204Z,7.91
2023-01-11T10:35:45.726Z,7.97
2023-01-11T10:38:41.146Z,7.99
2023-01-11T10:41:22.109Z,8.08
2023-01-11T10:44:05.026Z,8.12
2023-01-11T10:46:39.569Z,8.12
2023-01-11T10:49:26.722Z,8.25
2023-01-11T10:51:59.831Z,8.14
2023-01-11T10:54:31.797Z,8.26
2023-01-11T10:57:11.258Z,8.26
2023-01-11T10:59:50.937Z,8.26
2023-01-11T11:02:32.911Z,8.32
2023-01-11T11:05:15.274Z,8.37
2023-01-11T11:07:51.923Z,8.51
2023-01-11T11:10:25.532Z,8.47
2023-01-11T11:13:00.757Z,8.63
2023-01-11T11:15:35.312Z,8.56
2023-01-11T11:18:03.311Z,8.69
2023-01-11T11:20:33.584Z,8.71
2023-01-11T11:23:02.629Z,8.79
2023-01-11T11:25:33.625Z,8.80
2023-01-11T11:28:04.405Z,8.84
2023-01-11T11:30:37.908Z,8.80
2023-01-11T11:33:15.811Z,8.86
2023-01-11T11:35:46.245Z,8.79
2023-01-11T11:38:23.805Z,8.69
2023-01-11T11:40:58.821Z,8.64
2023-01-11T11:43:28.045Z,8.45
2023-01-11T11:45:57.900Z,8.46
2023-01-11T11:48:27.725Z,8.54
2023-01-11T11:50:58.290Z,8.55
2023-01-11T11:53:42.884Z,8.35
2023-01-11T11:56:19.373Z,8.39
2023-01-11T11:58:48.069Z,8.36
2023-01-11T12:01:28.492Z,8.40
2023-01-11T12:04:00.153Z,8.43
2023-01-11T12:06:29.782Z,8.33
2023-01-11T12:09:02.614Z,8.37
2023-01-11T12:11:32.839Z,8.29
2023-01-11T12:14:16.237Z,8.33
2023-01-11T12:16:45.460Z,8.25
2023-01-11T12:19:34.602Z,8.25
2023-01-11T12:22:13.121Z,8.21
2023-01-11T12:24:42.240Z,8.24
2023-01-11T12:27:25.025Z,8.07
2023-01-11T12:30:08.460Z,8.03
2023-01-11T12:33:12.528Z,8.20
2023-01-11T12:35:52.686Z,8.13
2023-01-11T12:38:31.128Z,8.07
2023-01-11T12:41:42.716Z,7.99
2023-01-11T12:44:16.466Z,8.06
2023-01-11T12:47:05.011Z,8.14
2023-01-11T12:49:46.991Z,7.91
2023-01-11T12:52:35.890Z,7.91
2023-01-11T12:55:20.593Z,7.87
2023-01-11T12:58:01.557Z,7.84
2023-01-11T13:00:51.587Z,7.87
2023-01-11T13:03:53.075Z,7.78
2023-01-11T13:06:26.426Z,7.76
2023-01-11T13:09:02.994Z,7.75
2023-01-11T13:11:45.738Z,7.69
2023-01-11T13:14:40.971Z,7.68
2023-01-11T13:17:21.433Z,7.61
2023-01-11T13:19:57.937Z,7.62
2023-01-11T13:22:31.380Z,7.49
2023-01-11T13:25:02.395Z,7.55
2023-01-11T13:27:31.797Z,7.57
2023-01-11T13:30:02.253Z,7.54
2023-01-11T13:32:36.417Z,7.49
2023-01-11T13:35:09.897Z,7.66
2023-01-11T13:37:41.632Z,7.51
2023-01-11T13:40:18.931Z,7.56
2023-01-11T13:42:51.653Z,7.51
2023-01-11T13:45:25.069Z,7.53
2023-01-11T13:47:55.973Z,7.53
2023-01-11T13:50:28.984Z,7.60
2023-01-11T13:53:04.001Z,7.66
2023-01-11T13:55:38.546Z,7.72
2023-01-11T13:58:16.380Z,7.80
2023-01-11T14:00:51.051Z,7.82
2023-01-11T14:03:26.609Z,7.86
2023-01-11T14:06:07.295Z,7.80
2023-01-11T14:09:01.439Z,7.77
2023-01-11T14:11:39.724Z,7.95
2023-01-11T14:14:39.710Z,7.86
2023-01-11T14:17:36.457Z,7.93
2023-01-11T14:20:13.342Z,7.93
2023-01-11T14:22:49.096Z,7.92
2023-01-11T14:25:21.863Z,7.93
2023-01-11T14:28:14.196Z,7.91
2023-01-11T14:31:02.710Z,7.98
2023-01-11T14:34:02.665Z,7.92
2023-01-11T14:37:01.895Z,7.99
2023-01-11T14:39:49.233Z,8.05
2023-01-11T14:42:49.759Z,8.05
2023-01-11T14:45:25.228Z,8.14
2023-01-11T14:48:15.778Z,8.09
2023-01-11T14:51:00.006Z,8.08
2023-01-11T14:53:32.445Z,8.07
2023-01-11T14:56:00.108Z,8.11
2023-01-11T14:58:29.810Z,8.04
2023-01-11T15:01:11.770Z,8.07
2023-01-11T15:03:48.812Z,8.06
2023-01-11T15:06:20.414Z,8.07
2023-01-11T15:08:51.210Z,8.05
2023-01-11T15:11:38.159Z,8.00
2023-01-11T15:14:22.953Z,8.00
2023-01-11T15:17:10.794Z,8.05
2023-01-11T15:19:42.747Z,7.97
2023-01-11T15:22:25.558Z,7.99
2023-01-11T15:24:59.844Z,8.03
2023-01-11T15:27:32.409Z,8.03
2023-01-11T15:30:00.355Z,8.11
2023-01-11T15:32:30.167Z,8.06
2023-01-11T15:35:32.309Z,8.10
2023-01-11T15:38:08.083Z,8.13
2023-01-11T15:40:40.182Z,8.15
2023-01-11T15:43:40.479Z,8.18
2023-01-11T15:46:54.417Z,8.22
2023-01-11T15:50:02.923Z,8.18
2023-01-11T15:53:01.936Z,8.22
2023-01-11T15:56:06.030Z,8.16
2023-01-11T15:59:02.503Z,8.21
2023-01-11T16:01:31.529Z,8.26
2023-01-11T16:04:05.154Z,8.32
2023-01-11T16:06:43.705Z,8.27
2023-01-11T16:09:25.929Z,8.35
2023-01-11T16:12:14.051Z,8.33
2023-01-11T16:15:13.162Z,8.29
2023-01-11T16:17:41.874Z,8.31
2023-01-11T16:20:24.744Z,8.33
2023-01-11T16:22:56.388Z,8.29
2023-01-11T16:25:26.931Z,8.36
2023-01-11T16:27:57.016Z,8.36
2023-01-11T16:30:26.878Z,8.41
2023-01-11T16:33:13.709Z,8.44
2023-01-11T16:35:41.381Z,8.47
2023-01-11T16:38:16.958Z,8.50
2023-01-11T16:40:49.092Z,8.45
2023-01-11T16:43:21.931Z,8.43
2023-01-11T16:45:53.982Z,8.41
2023-01-11T16:48:23.462Z,8.41
2023-01-11T16:51:00.562Z,8.42
2023-01-11T16:53:30.122Z,8.42
2023-01-11T16:56:05.076Z,8.37
2023-01-11T16:58:34.875Z,8.37
2023-01-11T17:01:06.934Z,8.41
2023-01-11T17:03:36.028Z,8.38
2023-01-11T17:06:19.809Z,8.32
2023-01-11T17:08:50.617Z,8.34
2023-01-11T17:11:24.337Z,8.31
2023-01-11T17:14:32.301Z,8.27
2023-01-11T17:17:04.016Z,8.30
2023-01-11T17:19:34.769Z,8.24
2023-01-11T17:22:06.380Z,8.25
2023-01-11T17:24:41.828Z,8.20
2023-01-11T17:27:19.210Z,8.19
2023-01-11T17:29:48.698Z,8.15
2023-01-11T17:32:22.582Z,8.12
2023-01-11T17:34:51.896Z,8.09
2023-01-11T17:37:20.181Z,8.11
2023-01-11T17:39:50.812Z,8.16
2023-01-11T17:42:36.935Z,8.10
2023-01-11T17:45:20.550Z,8.14
2023-01-11T17:47:52.134Z,8.13
2023-01-11T17:50:23.642Z,8.13
2023-01-11T17:52:55.532Z,8.18
2023-01-11T17:55:25.533Z,8.17
2023-01-11T17:58:15.477Z,8.18
2023-01-11T18:00:45.470Z,8.15
2023-01-11T18:03:18.502Z,8.13
2023-01-11T18:05:46.243Z,8.15
2023-01-11T18:08:21.016Z,8.17
2023-01-11T18:10:54.315Z,8.10
2023-01-11T18:13:26.885Z,8.10
2023-01-11T18:15:55.009Z,8.08
2023-01-11T18:18:54.615Z,8.08
2023-01-11T18:21:52.731Z,8.02
2023-01-11T18:24:31.311Z,8.09
2023-01-11T18:27:29.165Z,8.04
2023-01-11T18:30:01.213Z,8.03
2023-01-11T18:32:33.485Z,8.10
2023-01-11T18:35:02.608Z,8.04
2023-01-11T18:37:30.328Z,8.05
2023-01-11T18:39:59.272Z,8.03
2023-01-11T18:42:31.330Z,7.98
2023-01-11T18:44:59.011Z,7.97
2023-01-11T18:47:30.406Z,7.95
2023-01-11T18:49:58.784Z,7.93
2023-01-11T18:52:29.388Z,7.89
2023-01-11T18:54:58.279Z,7.86
2023-01-11T18:57:26.069Z,7.81
2023-01-11T18:59:54.182Z,7.80
2023-01-11T19:02:24.683Z,7.78
2023-01-11T19:04:54.070Z,7.81
2023-01-11T19:07:22.920Z,7.76
2023-01-11T19:09:52.143Z,7.78
2023-01-11T19:12:19.940Z,7.78
2023-01-11T19:14:47.772Z,7.78
2023-01-11T19:17:15.420Z,7.77
2023-01-11T19:19:43.314Z,7.78
2023-01-11T19:22:11.862Z,7.75
2023-01-11T19:24:40.453Z,7.74
2023-01-11T19:27:09.695Z,7.71
2023-01-11T19:29:37.381Z,7.69
2023-01-11T19:32:05.315Z,7.65
2023-01-11T19:34:34.759Z,7.62
2023-01-11T19:37:02.893Z,7.67
2023-01-11T19:39:30.547Z,7.64
2023-01-11T19:41:59.925Z,7.62
2023-01-11T19:44:32.109Z,7.62
2023-01-11T19:47:10.803Z,7.63
2023-01-11T19:49:39.380Z,7.65
2023-01-11T19:52:12.124Z,7.63
2023-01-11T19:54:41.713Z,7.56
2023-01-11T19:57:11.034Z,7.58
2023-01-11T19:59:40.084Z,7.54
2023-01-11T20:02:08.016Z,7.52
2023-01-11T20:04:35.737Z,7.59
2023-01-11T20:07:03.664Z,7.51
2023-01-11T20:09:31.381Z,7.49
2023-01-11T20:11:59.105Z,7.48
2023-01-11T20:14:26.912Z,7.48
2023-01-11T20:16:55.992Z,7.45
2023-01-11T20:19:23.758Z,7.47
2023-01-11T20:21:51.523Z,7.44
2023-01-11T20:24:19.301Z,7.48
2023-01-11T20:26:47.400Z,7.46
2023-01-11T20:29:15.508Z,7.45
2023-01-11T20:31:43.341Z,7.38
2023-01-11T20:34:13.474Z,7.44
2023-01-11T20:36:42.239Z,7.43
2023-01-11T20:39:12.302Z,7.40
2023-01-11T20:41:49.845Z,7.40
2023-01-11T20:44:19.563Z,7.37
2023-01-11T20:46:48.774Z,7.36
2023-01-11T20:49:18.983Z,7.38
2023-01-11T20:51:47.705Z,7.40
2023-01-11T20:54:16.134Z,7.34
2023-01-11T20:56:46.434Z,7.38
2023-01-11T20:59:16.508Z,7.44
2023-01-11T21:01:44.779Z,7.44
2023-01-11T21:04:14.372Z,7.49
2023-01-11T21:06:45.171Z,7.41
2023-01-11T21:09:15.861Z,7.44
2023-01-11T21:11:44.188Z,7.54
2023-01-11T21:14:13.003Z,7.50
2023-01-11T21:16:43.107Z,7.49
2023-01-11T21:19:13.386Z,7.58
2023-01-11T21:21:41.588Z,7.57
2023-01-11T21:24:13.416Z,7.59
2023-01-11T21:26:42.672Z,7.62
2023-01-11T21:29:11.591Z,7.63
2023-01-11T21:31:41.671Z,7.61
2023-01-11T21:34:13.288Z,7.59
2023-01-11T21:36:41.750Z,7.59
2023-01-11T21:39:14.799Z,7.52
2023-01-11T21:41:58.645Z,7.40
2023-01-11T21:44:33.355Z,7.41
2023-01-11T21:47:01.699Z,7.39
2023-01-11T21:49:29.706Z,7.32
2023-01-11T21:51:57.928Z,7.30
2023-01-11T21:54:27.744Z,7.24
2023-01-11T21:56:55.817Z,7.25
2023-01-11T21:59:24.704Z,7.23
2023-01-11T22:01:53.213Z,7.23
2023-01-11T22:04:22.107Z,7.25
2023-01-11T22:06:54.676Z,7.29
2023-01-11T22:09:23.816Z,7.30
2023-01-11T22:11:53.343Z,7.32
2023-01-11T22:14:21.394Z,7.27
2023-01-11T22:16:49.609Z,7.30
2023-01-11T22:19:18.348Z,7.31
2023-01-11T22:21:46.182Z,7.31
2023-01-11T22:24:14.214Z,7.29
2023-01-11T22:26:42.436Z,7.23
2023-01-11T22:29:15.142Z,7.11
2023-01-11T22:31:45.428Z,7.08
2023-01-11T22:34:14.584Z,7.04
2023-01-11T22:36:43.174Z,7.03
2023-01-11T22:39:11.389Z,6.94
2023-01-11T22:41:40.514Z,6.99
2023-01-11T22:44:08.570Z,7.06
2023-01-11T22:46:37.854Z,7.09
2023-01-11T22:49:06.998Z,7.01
2023-01-11T22:51:34.930Z,7.08
2023-01-11T22:54:03.123Z,7.14
2023-01-11T22:56:31.723Z,7.16
2023-01-11T22:59:00.314Z,7.17
2023-01-11T23:01:30.034Z,7.12
2023-01-11T23:04:00.154Z,7.04
2023-01-11T23:06:29.879Z,6.97
2023-01-11T23:08:57.917Z,6.91
2023-01-11T23:11:45.196Z,6.90
2023-01-11T23:14:15.718Z,6.95
2023-01-11T23:16:44.815Z,6.91
2023-01-11T23:19:16.056Z,6.91
2023-01-11T23:21:45.464Z,6.92
2023-01-11T23:24:15.072Z,6.93
2023-01-11T23:26:42.848Z,6.93
2023-01-11T23:29:10.862Z,6.98
2023-01-11T23:31:38.843Z,7.04
2023-01-11T23:34:08.536Z,7.07
2023-01-11T23:36:39.201Z,7.08
2023-01-11T23:39:08.037Z,7.03
2023-01-11T23:41:54.240Z,7.05
2023-01-11T23:44:22.617Z,7.08
2023-01-11T23:47:08.814Z,7.08
2023-01-11T23:49:36.624Z,7.04
2023-01-11T23:52:06.093Z,7.06
2023-01-11T23:54:34.711Z,7.17
2023-01-11T23:57:03.787Z,7.16
2023-01-11T23:59:32.017Z,7.12
